CDT,Max TemperatureF,Mean TemperatureF,Min TemperatureF,Max Dew PointF,MeanDew PointF,Min DewpointF,Max Humidity, Mean Humidity, Min Humidity, Max Sea Level PressureIn, Mean Sea Level PressureIn, Min Sea Level PressureIn, Max VisibilityMiles, Mean VisibilityMiles, Min VisibilityMiles, Max Wind SpeedMPH, Mean Wind SpeedMPH, Max Gust SpeedMPH,PrecipitationIn, CloudCover, Events, WindDirDegrees
2010-10-1,86,73,60,59,52,43,90,58,26,29.97,29.93,29.89,10,10,10,14,4,21,0.00,0,,3
2010-10-2,84,69,54,49,44,39,71,47,23,30.00,29.96,29.90,10,10,10,12,4,21,0.00,0,,3
2010-10-3,77,66,55,51,47,41,77,54,31,30.19,30.10,29.99,10,10,10,15,6,21,0.00,0,,4
2010-10-4,75,61,47,43,41,38,80,54,27,30.30,30.22,30.17,10,10,10,16,5,22,0.00,0,,32
2010-10-5,77,60,43,47,41,38,83,54,24,30.34,30.26,30.19,10,10,10,15,4,18,0.00,0,,41
2010-10-6,82,64,46,52,45,40,86,56,25,30.31,30.22,30.14,10,10,10,13,3,20,0.00,0,,11
2010-10-7,84,65,45,55,47,42,93,59,24,30.23,30.16,30.10,10,10,6,12,2,15,0.00,0,,278
2010-10-8,88,69,50,56,50,42,100,61,21,30.15,30.09,30.04,10,10,6,10,2,15,0.00,0,,260
2010-10-9,90,73,55,58,54,48,93,59,24,30.10,30.04,29.99,10,10,7,14,3,18,0.00,0,,247
2010-10-10,87,73,59,64,59,55,100,67,34,30.04,29.98,29.91,10,9,4,15,6,20,0.00,0,,258
2010-10-11,85,71,56,68,62,55,100,79,58,29.99,29.96,29.90,10,5,0,17,5,21,0.47,3,Fog-Rain,83
2010-10-12,83,74,64,68,65,63,100,78,55,30.00,29.96,29.91,10,9,0,21,6,28,0.76,5,Fog-Rain-Thunderstorm,256
2010-10-13,81,69,57,66,60,55,100,71,42,30.09,30.03,29.99,10,10,5,10,3,16,0.00,0,,314
2010-10-14,80,66,51,61,56,49,100,71,42,30.17,30.11,30.07,10,10,9,14,5,20,0.00,0,,340
2010-10-15,80,63,45,54,47,38,100,62,24,30.17,30.11,30.04,10,10,10,13,2,15,0.00,0,,272
2010-10-16,85,68,50,58,53,47,100,64,28,30.17,30.12,30.07,10,10,10,12,2,24,0.00,0,,272
2010-10-17,84,68,52,60,55,49,100,66,31,30.18,30.09,30.02,10,10,7,9,2,13,0.00,0,,287
2010-10-18,81,69,56,64,58,54,100,70,39,30.08,30.01,29.94,10,10,10,12,2,21,0.00,1,,244
2010-10-19,83,69,55,68,61,55,100,70,40,30.03,29.98,29.91,10,7,0,15,2,18,0.08,2,Fog-Rain,213
2010-10-20,82,72,61,70,64,61,100,81,62,30.06,30.00,29.96,10,7,0,13,4,18,0.02,3,Fog-Rain,21
2010-10-21,83,70,56,64,58,49,100,66,31,30.09,30.03,29.99,10,9,5,8,1,12,0.00,1,,54
2010-10-22,84,69,53,62,55,52,100,66,32,30.13,30.07,30.03,10,10,6,10,3,14,0.00,0,,98
2010-10-23,84,69,54,67,60,55,100,74,47,30.13,30.08,30.01,10,6,0,14,6,17,0.00,3,Fog,95
2010-10-24,87,76,65,72,68,65,100,78,55,30.04,29.98,29.87,10,6,0,15,6,17,0.00,4,Fog,137
2010-10-25,87,79,70,74,72,69,100,79,57,29.88,29.81,29.70,10,7,2,22,12,30,0.00,6,,177
2010-10-26,88,83,77,77,75,73,97,83,68,29.83,29.75,29.69,10,10,6,28,15,35,0.06,6,Rain,191
2010-10-27,88,83,77,79,77,75,97,83,68,30.04,29.94,29.83,10,10,2,18,10,23,0.28,7,Rain,195
2010-10-28,79,66,53,79,54,34,100,66,32,30.30,30.15,30.04,10,10,8,17,7,29,0.00,3,,317
2010-10-29,74,60,45,41,37,33,77,50,23,30.33,30.25,30.19,10,10,10,12,4,17,0.00,0,,22
2010-10-30,77,58,39,50,42,36,100,64,27,30.20,30.13,30.04,10,10,10,8,2,18,0.00,0,,42
2010-10-31,79,63,47,63,56,47,100,77,54,30.10,30.05,29.99,10,10,8,13,2,15,0.00,2,,156